createdAt,value
2019-04-30T00:00:55.443Z,25.40
2019-04-30T00:03:32.229Z,23.40
2019-04-30T00:06:01.243Z,28.70
2019-04-30T00:08:34.774Z,24.87
2019-04-30T00:11:01.188Z,26.37
2019-04-30T00:13:30.608Z,26.93
2019-04-30T00:16:01.614Z,28.37
2019-04-30T00:18:30.861Z,26.97
2019-04-30T00:21:01.255Z,30.63
2019-04-30T00:23:30.930Z,30.87
2019-04-30T00:26:06.011Z,27.83
2019-04-30T00:28:35.420Z,27.23
2019-04-30T00:31:05.537Z,29.90
2019-04-30T00:33:36.935Z,32.27
2019-04-30T00:36:06.030Z,34.97
2019-04-30T00:38:37.930Z,29.83
2019-04-30T00:41:13.077Z,28.27
2019-04-30T00:43:47.133Z,30.47
2019-04-30T00:46:17.457Z,31.80
2019-04-30T00:48:45.503Z,33.33
2019-04-30T00:51:21.230Z,35.87
2019-04-30T00:53:51.224Z,33.20
2019-04-30T00:56:19.991Z,35.27
2019-04-30T00:58:48.979Z,32.30
2019-04-30T01:01:48.025Z,36.20
2019-04-30T01:04:37.311Z,35.37
2019-04-30T01:07:08.635Z,30.70
2019-04-30T01:09:39.744Z,31.63
2019-04-30T01:12:09.333Z,32.37
2019-04-30T01:14:41.692Z,30.40
2019-04-30T01:17:12.306Z,31.80
2019-04-30T01:19:46.066Z,32.70
2019-04-30T01:22:13.613Z,31.13
2019-04-30T01:24:43.005Z,32.83
2019-04-30T01:27:12.106Z,29.40
2019-04-30T01:29:44.357Z,28.60
2019-04-30T01:32:19.823Z,30.83
2019-04-30T01:34:49.956Z,30.77
2019-04-30T01:37:20.304Z,33.40
2019-04-30T01:39:49.230Z,33.67
2019-04-30T01:42:18.664Z,34.07
2019-04-30T01:44:54.077Z,28.27
2019-04-30T01:47:27.892Z,31.60
2019-04-30T01:50:00.207Z,30.57
2019-04-30T01:52:49.328Z,31.60
2019-04-30T01:55:19.777Z,28.10
2019-04-30T01:58:02.530Z,29.93
2019-04-30T02:00:36.419Z,31.03
2019-04-30T02:03:05.829Z,25.90
2019-04-30T02:05:35.217Z,32.47
2019-04-30T02:08:04.610Z,28.93
2019-04-30T02:10:35.955Z,31.30
2019-04-30T02:13:06.155Z,27.30
2019-04-30T02:15:35.253Z,28.50
2019-04-30T02:18:04.585Z,28.73
2019-04-30T02:20:33.653Z,26.83
2019-04-30T02:23:02.701Z,26.77
2019-04-30T02:25:32.101Z,25.93
2019-04-30T02:28:03.471Z,29.13
2019-04-30T02:30:35.655Z,29.77
2019-04-30T02:33:05.075Z,30.27
2019-04-30T02:35:54.171Z,25.50
2019-04-30T02:38:32.303Z,23.87
2019-04-30T02:41:02.584Z,25.23
2019-04-30T02:43:33.219Z,25.83
2019-04-30T02:46:04.042Z,26.67
2019-04-30T02:48:33.932Z,25.67
2019-04-30T02:51:04.508Z,26.87
2019-04-30T02:54:10.768Z,25.77
2019-04-30T02:56:41.213Z,26.77
2019-04-30T02:59:10.522Z,28.67
2019-04-30T03:01:40.439Z,25.37
2019-04-30T03:04:10.259Z,28.03
2019-04-30T03:06:40.217Z,31.23
2019-04-30T03:09:10.749Z,26.37
2019-04-30T03:11:40.731Z,26.90
2019-04-30T03:14:10.995Z,28.30
2019-04-30T03:16:53.479Z,26.60
2019-04-30T03:19:44.812Z,25.20
2019-04-30T03:22:16.642Z,28.83
2019-04-30T03:24:45.663Z,28.13
2019-04-30T03:27:14.736Z,28.63
2019-04-30T03:29:44.527Z,29.27
2019-04-30T03:32:14.511Z,26.97
2019-04-30T03:34:44.378Z,29.17
2019-04-30T03:37:14.388Z,27.13
2019-04-30T03:39:44.032Z,27.97
2019-04-30T03:42:19.882Z,26.77
2019-04-30T03:44:49.746Z,27.23
2019-04-30T03:47:20.148Z,28.77
2019-04-30T03:49:50.111Z,25.30
2019-04-30T03:52:20.017Z,28.63
2019-04-30T03:54:49.743Z,30.90
2019-04-30T03:57:20.565Z,28.07
2019-04-30T03:59:52.238Z,27.53
2019-04-30T04:02:40.899Z,26.60
2019-04-30T04:05:21.720Z,27.93
2019-04-30T04:08:21.841Z,25.90
2019-04-30T04:11:12.610Z,26.87
2019-04-30T04:13:42.109Z,24.53
2019-04-30T04:16:11.200Z,28.53
2019-04-30T04:18:40.420Z,26.10
2019-04-30T04:21:16.508Z,26.03
2019-04-30T04:23:40.243Z,25.73
2019-04-30T04:26:09.650Z,28.13
2019-04-30T04:28:43.105Z,27.07
2019-04-30T04:31:09.649Z,26.67
2019-04-30T04:33:40.475Z,24.97
2019-04-30T04:36:09.520Z,26.23
2019-04-30T04:38:41.525Z,27.50
2019-04-30T04:41:10.612Z,32.13
2019-04-30T04:43:40.136Z,27.00
2019-04-30T04:46:09.866Z,27.57
2019-04-30T04:48:39.445Z,28.13
2019-04-30T04:51:19.786Z,29.43
2019-04-30T04:53:40.300Z,28.87
2019-04-30T04:56:10.204Z,27.77
2019-04-30T04:58:43.167Z,27.83
2019-04-30T05:01:12.337Z,26.73
2019-04-30T05:03:41.353Z,29.10
2019-04-30T05:06:11.804Z,28.67
2019-04-30T05:08:43.972Z,25.33
2019-04-30T05:11:13.470Z,26.37
2019-04-30T05:13:42.814Z,29.23
2019-04-30T05:16:12.958Z,26.20
2019-04-30T05:18:42.029Z,27.40
2019-04-30T05:21:14.499Z,30.97
2019-04-30T05:23:43.952Z,30.27
2019-04-30T05:26:15.039Z,32.00
2019-04-30T05:28:44.192Z,30.30
2019-04-30T05:31:13.570Z,28.53
2019-04-30T05:33:43.124Z,28.80
2019-04-30T05:36:12.196Z,32.77
2019-04-30T05:38:41.615Z,30.83
2019-04-30T05:41:10.662Z,27.37
2019-04-30T05:43:39.695Z,31.40
2019-04-30T05:46:11.023Z,33.03
2019-04-30T05:48:41.242Z,33.13
2019-04-30T05:51:10.978Z,32.30
2019-04-30T05:53:40.319Z,30.03
2019-04-30T05:56:09.906Z,29.77
2019-04-30T05:58:39.687Z,33.87
2019-04-30T06:01:09.668Z,34.43
2019-04-30T06:03:39.673Z,35.80
2019-04-30T06:06:11.263Z,34.37
2019-04-30T06:08:46.578Z,34.53
2019-04-30T06:11:34.596Z,33.70
2019-04-30T06:14:23.828Z,34.80
2019-04-30T06:17:11.537Z,36.07
2019-04-30T06:19:42.984Z,41.13
2019-04-30T06:22:12.554Z,37.97
2019-04-30T06:24:41.713Z,46.70
2019-04-30T06:27:11.298Z,43.10
2019-04-30T06:29:41.516Z,43.97
2019-04-30T06:32:12.370Z,43.93
2019-04-30T06:34:42.179Z,38.70
2019-04-30T06:37:11.220Z,47.97
2019-04-30T06:39:40.299Z,45.77
2019-04-30T06:42:14.761Z,45.03
2019-04-30T06:44:43.951Z,44.53
2019-04-30T06:47:18.939Z,44.90
2019-04-30T06:49:48.994Z,41.47
2019-04-30T06:52:21.461Z,42.47
2019-04-30T06:54:49.811Z,41.80
2019-04-30T06:57:19.973Z,40.87
2019-04-30T06:59:51.576Z,46.30
2019-04-30T07:02:20.676Z,45.87
2019-04-30T07:04:50.046Z,49.13
2019-04-30T07:07:23.016Z,47.60
2019-04-30T07:10:01.212Z,44.87
2019-04-30T07:12:38.876Z,40.57
2019-04-30T07:15:13.574Z,41.47
2019-04-30T07:17:41.863Z,42.33
2019-04-30T07:20:10.896Z,36.97
2019-04-30T07:22:48.954Z,34.10
2019-04-30T07:25:10.995Z,32.90
2019-04-30T07:27:40.677Z,34.97
2019-04-30T07:30:10.190Z,33.37
2019-04-30T07:32:39.722Z,32.30
2019-04-30T07:35:09.683Z,34.13
2019-04-30T07:37:39.277Z,31.50
2019-04-30T07:40:09.270Z,28.50
2019-04-30T07:42:44.712Z,27.53
2019-04-30T07:45:09.829Z,27.47
2019-04-30T07:47:40.182Z,26.07
2019-04-30T07:50:10.627Z,29.20
2019-04-30T07:52:57.740Z,29.43
2019-04-30T07:55:11.186Z,27.03
2019-04-30T07:57:40.659Z,26.67
2019-04-30T08:00:10.221Z,30.67
2019-04-30T08:02:44.333Z,28.30
2019-04-30T08:05:25.695Z,27.90
2019-04-30T08:07:54.786Z,25.87
2019-04-30T08:10:23.860Z,25.23
2019-04-30T08:12:53.183Z,27.50
2019-04-30T08:15:25.462Z,25.17
2019-04-30T08:18:03.502Z,22.60
2019-04-30T08:20:25.278Z,27.97
2019-04-30T08:22:54.314Z,27.27
2019-04-30T08:25:23.562Z,27.73
2019-04-30T08:27:56.208Z,25.83
2019-04-30T08:30:26.999Z,28.03
2019-04-30T08:32:57.012Z,27.43
2019-04-30T08:35:26.368Z,28.17
2019-04-30T08:37:55.414Z,28.03
2019-04-30T08:40:24.520Z,27.63
2019-04-30T08:42:54.198Z,26.77
2019-04-30T08:45:23.223Z,26.43
2019-04-30T08:47:52.657Z,27.70
2019-04-30T08:50:22.712Z,29.73
2019-04-30T08:52:51.835Z,29.60
2019-04-30T08:55:23.630Z,27.03
2019-04-30T08:57:52.698Z,29.40
2019-04-30T09:00:23.381Z,28.93
2019-04-30T09:02:52.756Z,26.67
2019-04-30T09:05:30.009Z,26.87
2019-04-30T09:07:59.842Z,27.90
2019-04-30T09:10:29.627Z,30.40
2019-04-30T09:12:59.776Z,28.23
2019-04-30T09:15:29.438Z,32.30
2019-04-30T09:18:03.777Z,27.80
2019-04-30T09:20:33.758Z,29.27
2019-04-30T09:23:03.156Z,27.97
2019-04-30T09:25:32.564Z,28.37
2019-04-30T09:28:04.407Z,27.63
2019-04-30T09:30:32.812Z,26.80
2019-04-30T09:33:02.502Z,28.20
2019-04-30T09:35:34.282Z,28.90
2019-04-30T09:38:03.507Z,27.60
2019-04-30T09:40:32.706Z,23.67
2019-04-30T09:43:02.350Z,25.97
2019-04-30T09:45:31.728Z,23.93
2019-04-30T09:48:01.151Z,27.10
2019-04-30T09:50:30.636Z,27.00
2019-04-30T09:53:00.829Z,27.63
2019-04-30T09:55:30.358Z,28.63
2019-04-30T09:57:59.418Z,25.17
2019-04-30T10:00:29.568Z,26.93
2019-04-30T10:02:59.918Z,26.10
2019-04-30T10:05:31.490Z,29.93
2019-04-30T10:08:00.941Z,28.53
2019-04-30T10:10:35.804Z,34.13
2019-04-30T10:13:05.263Z,33.80
2019-04-30T10:15:58.571Z,33.53
2019-04-30T10:18:28.009Z,31.63
2019-04-30T10:20:58.852Z,25.17
2019-04-30T10:23:27.836Z,46.03
2019-04-30T10:25:56.854Z,30.30
2019-04-30T10:28:26.212Z,31.60
2019-04-30T10:30:55.288Z,29.70
2019-04-30T10:33:24.320Z,25.53
2019-04-30T10:35:54.100Z,29.10
2019-04-30T10:38:23.662Z,32.60
2019-04-30T10:40:58.624Z,28.80
2019-04-30T10:43:26.738Z,29.47
2019-04-30T10:45:55.764Z,31.07
2019-04-30T10:48:25.152Z,30.67
2019-04-30T10:50:59.950Z,36.03
2019-04-30T10:53:31.978Z,36.73
2019-04-30T10:56:00.991Z,44.77
2019-04-30T10:58:30.383Z,42.40
2019-04-30T11:01:01.900Z,38.97
2019-04-30T11:03:30.170Z,43.10
2019-04-30T11:05:59.214Z,44.13
2019-04-30T11:08:28.232Z,34.70
2019-04-30T11:10:57.305Z,43.57
2019-04-30T11:13:26.399Z,47.03
2019-04-30T11:15:55.846Z,37.50
2019-04-30T11:18:25.932Z,43.17
2019-04-30T11:20:55.237Z,42.63
2019-04-30T11:23:24.859Z,42.00
2019-04-30T11:25:55.009Z,42.33
2019-04-30T11:28:25.342Z,42.60
2019-04-30T11:31:08.964Z,36.67
2019-04-30T11:33:38.424Z,42.37
2019-04-30T11:36:09.626Z,37.57
2019-04-30T11:38:38.859Z,44.37
2019-04-30T11:41:09.347Z,42.23
2019-04-30T11:43:40.851Z,41.80
2019-04-30T11:47:15.136Z,58.13
2019-04-30T11:49:44.221Z,79.23
2019-04-30T11:52:13.330Z,55.23
2019-04-30T11:54:49.222Z,47.53
2019-04-30T11:57:13.644Z,45.67
2019-04-30T11:59:42.717Z,40.63
2019-04-30T12:02:19.081Z,40.10
2019-04-30T12:04:49.429Z,32.70
2019-04-30T12:07:27.807Z,38.67
2019-04-30T12:10:09.471Z,33.93
2019-04-30T12:12:38.862Z,27.15
2019-04-30T12:15:09.286Z,31.35
2019-04-30T12:17:38.684Z,33.20
2019-04-30T12:20:08.623Z,30.62
2019-04-30T12:22:39.665Z,32.75
2019-04-30T12:25:10.015Z,30.55
2019-04-30T12:27:39.208Z,29.77
2019-04-30T12:30:08.993Z,32.05
2019-04-30T12:32:39.276Z,40.58
2019-04-30T12:35:09.284Z,35.00
2019-04-30T12:37:39.105Z,33.48
2019-04-30T12:40:10.825Z,31.20
2019-04-30T12:42:40.111Z,32.00
2019-04-30T12:45:09.592Z,29.52
2019-04-30T12:47:43.275Z,31.52
2019-04-30T12:50:21.092Z,29.52
2019-04-30T12:52:54.289Z,30.20
2019-04-30T12:55:46.037Z,29.95
2019-04-30T12:58:15.085Z,32.23
2019-04-30T13:00:45.516Z,32.80
2019-04-30T13:03:15.289Z,31.42
2019-04-30T13:05:45.906Z,30.45
2019-04-30T13:08:16.397Z,32.30
2019-04-30T13:10:46.642Z,34.65
2019-04-30T13:13:17.510Z,34.58
2019-04-30T13:15:47.125Z,32.40
2019-04-30T13:18:16.454Z,31.48
2019-04-30T13:20:45.603Z,32.55
2019-04-30T13:23:15.015Z,35.30
2019-04-30T13:25:51.247Z,36.23
2019-04-30T13:28:18.969Z,31.27
2019-04-30T13:30:49.473Z,27.50
2019-04-30T13:33:39.209Z,33.20
2019-04-30T13:36:08.839Z,34.40
2019-04-30T13:38:52.037Z,30.88
2019-04-30T13:41:30.537Z,31.55
2019-04-30T13:44:09.733Z,30.37
2019-04-30T13:46:39.649Z,33.45
2019-04-30T13:49:09.251Z,28.87
2019-04-30T13:51:38.968Z,35.23
2019-04-30T13:54:08.775Z,36.08
2019-04-30T13:56:39.688Z,34.03
2019-04-30T13:59:11.701Z,34.95
2019-04-30T14:01:41.456Z,34.88
2019-04-30T14:04:16.913Z,34.92
2019-04-30T14:06:56.482Z,32.85
2019-04-30T14:09:27.819Z,34.48
2019-04-30T14:11:58.230Z,37.00
2019-04-30T14:14:29.222Z,38.02
2019-04-30T14:17:01.188Z,38.58
2019-04-30T14:19:29.826Z,41.40
2019-04-30T14:21:59.557Z,41.25
2019-04-30T14:24:28.583Z,34.60
2019-04-30T14:26:59.084Z,42.78
2019-04-30T14:29:29.896Z,36.83
2019-04-30T14:31:58.963Z,38.05
2019-04-30T14:34:28.704Z,40.48
2019-04-30T14:36:59.360Z,38.78
2019-04-30T14:39:29.172Z,40.65
2019-04-30T14:42:00.079Z,37.15
2019-04-30T14:44:31.783Z,38.05
2019-04-30T14:47:40.816Z,39.53
2019-04-30T14:50:20.378Z,34.88
2019-04-30T14:53:17.503Z,32.17
2019-04-30T14:56:14.694Z,37.35
2019-04-30T14:59:01.707Z,36.25
2019-04-30T15:01:55.526Z,35.83
2019-04-30T15:04:24.940Z,30.65
2019-04-30T15:06:53.989Z,30.57
2019-04-30T15:09:23.099Z,35.83
2019-04-30T15:11:52.185Z,30.75
2019-04-30T15:14:21.728Z,35.00
2019-04-30T15:16:50.804Z,37.08
2019-04-30T15:19:19.906Z,37.17
2019-04-30T15:21:49.167Z,35.08
2019-04-30T15:24:26.418Z,36.25
2019-04-30T15:26:57.699Z,40.75
2019-04-30T15:29:26.275Z,37.73
2019-04-30T15:31:55.371Z,35.05
2019-04-30T15:34:24.775Z,34.45
2019-04-30T15:36:53.849Z,33.33
2019-04-30T15:39:33.696Z,34.18
2019-04-30T15:42:05.550Z,37.45
2019-04-30T15:44:40.036Z,31.07
2019-04-30T15:47:06.565Z,30.05
2019-04-30T15:49:35.811Z,29.90
2019-04-30T15:52:10.614Z,31.15
2019-04-30T15:54:39.307Z,31.07
2019-04-30T15:57:08.921Z,31.27
2019-04-30T15:59:39.861Z,33.33
2019-04-30T16:02:14.194Z,33.63
2019-04-30T16:04:56.506Z,33.83
2019-04-30T16:07:25.609Z,33.78
2019-04-30T16:10:29.023Z,30.75
2019-04-30T16:13:09.678Z,29.12
2019-04-30T16:15:39.163Z,36.10
2019-04-30T16:18:09.758Z,27.22
2019-04-30T16:20:39.343Z,34.08
2019-04-30T16:23:09.204Z,35.13
2019-04-30T16:25:43.467Z,31.57
2019-04-30T16:28:13.973Z,29.32
2019-04-30T16:30:43.663Z,30.95
2019-04-30T16:33:12.693Z,32.87
2019-04-30T16:35:44.417Z,28.75
2019-04-30T16:38:13.487Z,31.02
2019-04-30T16:40:42.551Z,30.77
2019-04-30T16:43:11.629Z,27.35
2019-04-30T16:45:40.679Z,29.23
2019-04-30T16:48:11.917Z,34.05
2019-04-30T16:50:40.965Z,30.72
2019-04-30T16:53:10.046Z,26.62
2019-04-30T16:55:39.090Z,28.40
2019-04-30T16:58:08.963Z,28.02
2019-04-30T17:00:39.230Z,29.32
2019-04-30T17:03:15.185Z,32.53
2019-04-30T17:05:49.975Z,27.17
2019-04-30T17:08:26.914Z,28.20
2019-04-30T17:11:33.109Z,27.77
2019-04-30T17:14:05.094Z,28.83
2019-04-30T17:16:34.984Z,26.73
2019-04-30T17:19:04.350Z,28.27
2019-04-30T17:21:33.635Z,25.88
2019-04-30T17:24:02.961Z,27.67
2019-04-30T17:26:32.404Z,30.55
2019-04-30T17:29:01.735Z,28.25
2019-04-30T17:31:30.814Z,29.73
2019-04-30T17:34:02.277Z,27.10
2019-04-30T17:36:31.936Z,27.30
2019-04-30T17:39:00.984Z,25.03
2019-04-30T17:41:30.295Z,28.07
2019-04-30T17:43:59.677Z,22.43
2019-04-30T17:46:28.816Z,24.20
2019-04-30T17:48:59.260Z,23.07
2019-04-30T17:51:29.565Z,24.87
2019-04-30T17:54:13.323Z,21.67
2019-04-30T17:56:43.245Z,21.63
2019-04-30T17:59:12.382Z,22.43
2019-04-30T18:01:43.821Z,21.43
2019-04-30T18:04:13.059Z,22.93
2019-04-30T18:06:42.143Z,29.53
2019-04-30T18:09:11.862Z,26.87
2019-04-30T18:11:40.916Z,23.40
2019-04-30T18:14:10.105Z,25.70
2019-04-30T18:16:39.203Z,26.07
2019-04-30T18:19:21.835Z,26.53
2019-04-30T18:21:56.845Z,28.03
2019-04-30T18:24:45.770Z,28.67
2019-04-30T18:27:24.175Z,27.80
2019-04-30T18:29:53.262Z,27.97
2019-04-30T18:32:24.203Z,26.97
2019-04-30T18:34:53.283Z,29.37
2019-04-30T18:37:22.723Z,19.27
2019-04-30T18:39:52.143Z,28.27
2019-04-30T18:42:21.645Z,29.07
2019-04-30T18:44:51.005Z,31.80
2019-04-30T18:47:20.089Z,31.50
2019-04-30T18:49:49.576Z,27.57
2019-04-30T18:52:18.913Z,28.53
2019-04-30T18:54:49.498Z,26.83
2019-04-30T18:57:18.696Z,29.53
2019-04-30T18:59:47.767Z,31.87
2019-04-30T19:02:17.444Z,31.33
2019-04-30T19:04:49.622Z,30.00
2019-04-30T19:07:29.811Z,30.67
2019-04-30T19:10:33.172Z,29.97
2019-04-30T19:13:21.176Z,36.23
2019-04-30T19:16:19.827Z,34.67
2019-04-30T19:18:48.137Z,37.40
2019-04-30T19:21:17.246Z,32.83
2019-04-30T19:23:48.592Z,30.23
2019-04-30T19:26:19.045Z,33.03
2019-04-30T19:28:49.288Z,32.27
2019-04-30T19:31:19.948Z,32.73
2019-04-30T19:33:51.534Z,42.53
2019-04-30T19:36:22.150Z,36.83
2019-04-30T19:38:51.659Z,36.03
2019-04-30T19:41:20.818Z,34.57
2019-04-30T19:43:50.317Z,35.60
2019-04-30T19:46:19.924Z,38.27
2019-04-30T19:48:50.697Z,37.30
2019-04-30T19:51:20.444Z,37.77
2019-04-30T19:53:49.493Z,35.47
2019-04-30T19:56:20.678Z,36.07
2019-04-30T19:59:01.818Z,40.33
2019-04-30T20:01:20.979Z,38.57
2019-04-30T20:03:50.019Z,39.80
2019-04-30T20:06:19.206Z,39.97
2019-04-30T20:08:48.551Z,43.43
2019-04-30T20:11:17.992Z,39.17
2019-04-30T20:13:48.936Z,37.50
2019-04-30T20:16:19.605Z,36.10
2019-04-30T20:18:49.079Z,39.60
2019-04-30T20:21:27.922Z,42.00
2019-04-30T20:23:51.205Z,46.10
2019-04-30T20:26:21.409Z,42.50
2019-04-30T20:28:50.462Z,38.53
2019-04-30T20:31:19.521Z,40.03
2019-04-30T20:33:49.025Z,42.80
2019-04-30T20:36:19.145Z,41.60
2019-04-30T20:39:19.494Z,39.23
2019-04-30T20:41:51.750Z,49.80
2019-04-30T20:44:20.790Z,39.20
2019-04-30T20:46:49.854Z,41.37
2019-04-30T20:49:19.364Z,41.90
2019-04-30T20:51:55.585Z,37.50
2019-04-30T20:54:19.322Z,41.10
2019-04-30T20:56:51.052Z,44.37
2019-04-30T20:59:20.514Z,40.93
2019-04-30T21:01:49.890Z,42.30
2019-04-30T21:04:20.989Z,42.33
2019-04-30T21:06:53.137Z,43.17
2019-04-30T21:09:22.548Z,40.83
2019-04-30T21:11:54.245Z,43.10
2019-04-30T21:14:23.679Z,44.33
2019-04-30T21:16:53.008Z,43.97
2019-04-30T21:19:25.111Z,42.50
2019-04-30T21:21:54.164Z,44.87
2019-04-30T21:24:23.228Z,43.67
2019-04-30T21:26:52.283Z,40.10
2019-04-30T21:29:21.314Z,42.00
2019-04-30T21:32:14.631Z,43.33
2019-04-30T21:35:02.718Z,44.37
2019-04-30T21:37:33.938Z,51.10
2019-04-30T21:40:05.087Z,48.73
2019-04-30T21:42:34.326Z,50.77
2019-04-30T21:45:05.968Z,49.87
2019-04-30T21:47:35.016Z,47.13
2019-04-30T21:50:04.096Z,43.77
2019-04-30T21:52:33.128Z,47.77
2019-04-30T21:55:02.217Z,49.20
2019-04-30T21:57:32.754Z,48.03
2019-04-30T22:00:02.554Z,49.47
2019-04-30T22:02:31.578Z,49.50
2019-04-30T22:05:00.636Z,52.57
2019-04-30T22:07:30.057Z,51.20
2019-04-30T22:09:59.110Z,44.27
2019-04-30T22:12:28.444Z,47.23
2019-04-30T22:14:58.914Z,45.77
2019-04-30T22:17:29.279Z,45.20
2019-04-30T22:19:59.635Z,54.07
2019-04-30T22:22:31.572Z,50.17
2019-04-30T22:25:00.678Z,47.80
2019-04-30T22:27:29.742Z,47.20
2019-04-30T22:29:59.064Z,46.77
2019-04-30T22:32:28.078Z,48.63
2019-04-30T22:35:19.200Z,49.50
2019-04-30T22:37:50.635Z,50.90
2019-04-30T22:40:19.741Z,46.80
2019-04-30T22:42:49.680Z,47.00
2019-04-30T22:45:24.421Z,51.17
2019-04-30T22:47:53.450Z,49.33
2019-04-30T22:50:22.494Z,49.33
2019-04-30T22:52:51.524Z,49.93
2019-04-30T22:55:20.590Z,54.17
2019-04-30T22:57:51.745Z,51.60
2019-04-30T23:00:32.518Z,48.20
2019-04-30T23:03:10.944Z,48.03
2019-04-30T23:05:40.351Z,51.17
2019-04-30T23:08:09.384Z,51.60
2019-04-30T23:10:38.772Z,50.13
2019-04-30T23:13:08.136Z,44.67
2019-04-30T23:15:39.989Z,47.60
2019-04-30T23:18:12.239Z,50.33
2019-04-30T23:20:41.272Z,46.60
2019-04-30T23:23:10.371Z,49.30
2019-04-30T23:25:39.631Z,45.20
2019-04-30T23:28:08.634Z,48.77
2019-04-30T23:30:38.063Z,45.30
2019-04-30T23:33:07.098Z,48.13
2019-04-30T23:35:39.086Z,45.87
2019-04-30T23:38:09.879Z,48.73
2019-04-30T23:40:50.689Z,46.43
2019-04-30T23:43:20.342Z,43.10
2019-04-30T23:45:49.538Z,48.03
2019-04-30T23:48:18.608Z,45.10
2019-04-30T23:50:48.039Z,46.50
2019-04-30T23:53:17.065Z,43.10
2019-04-30T23:55:46.082Z,46.53
2019-04-30T23:58:15.528Z,44.80
